Time;durP1;ratioP1;P1;durP2;ratioP2;P2;SDS_P1;SDS_P2;PMS_P1;PMS_P2;Temp;Humidity;BMP_temperature;BMP_pressure;BME280_temperature;BME280_humidity;BME280_pressure;Samples;Min_cycle;Max_cycle;Signal;HPM_P1;HPM_P2
2022/11/15 00:01:49;;;;;;;14.18;6.28;;;;;;;9.25;94.29;100436.75;5011422;28;20049;-73
2022/11/15 00:04:33;;;;;;;16.70;7.05;;;;;;;9.29;94.89;100429.53;5012354;28;20048;-73
2022/11/15 00:07:17;;;;;;;12.63;6.47;;;;;;;9.26;94.55;100432.91;5012129;28;20119;-73
2022/11/15 00:10:01;;;;;;;14.70;6.57;;;;;;;9.10;94.69;100423.00;5009814;28;20088;-73
2022/11/15 00:12:45;;;;;;;14.20;6.25;;;;;;;9.13;95.24;100432.28;5010677;28;20057;-73
2022/11/15 00:15:29;;;;;;;16.92;7.28;;;;;;;9.14;95.17;100422.31;5009446;28;20091;-73
2022/11/15 00:18:15;;;;;;;17.08;7.93;;;;;;;9.15;95.19;100421.16;5008833;28;20041;-73
2022/11/15 00:21:08;;;;;;;17.80;6.68;;;;;;;9.03;95.67;100427.44;5012228;28;20601;-73
2022/11/15 00:23:53;;;;;;;13.82;6.72;;;;;;;9.13;94.98;100434.97;5007713;28;20512;-73
2022/11/15 00:26:37;;;;;;;12.93;6.90;;;;;;;9.05;95.31;100438.59;5012381;28;20053;-73
2022/11/15 00:29:21;;;;;;;14.82;5.97;;;;;;;9.13;95.59;100434.97;5010894;28;20457;-73
2022/11/15 00:32:05;;;;;;;14.57;5.55;;;;;;;9.04;95.44;100437.81;5012892;28;20051;-73
2022/11/15 00:34:48;;;;;;;15.13;6.03;;;;;;;9.08;95.66;100436.00;5016511;28;20100;-73
2022/11/15 00:37:32;;;;;;;16.55;7.03;;;;;;;8.80;96.75;100440.72;5012171;28;20548;-73
2022/11/15 00:40:17;;;;;;;14.13;6.60;;;;;;;9.00;96.68;100436.97;5009864;28;20048;-73
2022/11/15 00:43:00;;;;;;;24.00;6.28;;;;;;;9.11;96.36;100434.53;5011506;28;20056;-73
2022/11/15 00:45:44;;;;;;;14.30;6.78;;;;;;;9.08;96.28;100440.59;5008530;28;20100;-73
2022/11/15 00:48:29;;;;;;;11.77;5.90;;;;;;;9.14;95.88;100428.44;5021767;28;20049;-73
2022/11/15 00:51:12;;;;;;;11.63;6.20;;;;;;;9.18;95.36;100433.88;5009916;28;20048;-73
2022/11/15 00:53:56;;;;;;;16.33;7.05;;;;;;;9.16;95.26;100446.88;5005634;28;20133;-73
2022/11/15 00:56:40;;;;;;;10.20;5.80;;;;;;;9.06;94.88;100427.50;5005279;28;20053;-73
2022/11/15 00:59:24;;;;;;;16.13;6.00;;;;;;;9.04;95.00;100437.03;5011784;28;20044;-73
2022/11/15 01:02:08;;;;;;;16.23;6.68;;;;;;;9.09;95.13;100432.19;5012216;28;20407;-73
2022/11/15 01:04:52;;;;;;;18.10;6.95;;;;;;;9.04;95.36;100435.13;5022717;28;20053;-73
2022/11/15 01:07:36;;;;;;;18.58;6.05;;;;;;;9.07;95.43;100433.66;5001684;28;20100;-73
2022/11/15 01:10:21;;;;;;;14.75;6.43;;;;;;;9.06;95.66;100416.75;5011680;28;20044;-73
2022/11/15 01:13:05;;;;;;;11.82;6.18;;;;;;;9.14;95.61;100420.38;5009789;28;20044;-73
2022/11/15 01:15:49;;;;;;;8.57;5.25;;;;;;;9.17;95.34;100424.28;5008693;28;20091;-73
2022/11/15 01:18:33;;;;;;;11.90;5.82;;;;;;;9.11;95.66;100418.41;5010780;28;20048;-73
2022/11/15 01:21:18;;;;;;;13.50;6.90;;;;;;;9.09;95.23;100409.91;5010364;28;20065;-73
2022/11/15 01:24:03;;;;;;;12.30;6.03;;;;;;;9.14;95.43;100412.31;5010983;28;20088;-73
2022/11/15 01:26:47;;;;;;;16.63;7.07;;;;;;;9.10;95.28;100406.88;5010500;28;20053;-73
2022/11/15 01:29:31;;;;;;;11.40;5.25;;;;;;;9.05;96.06;100414.44;5011712;28;20041;-73
2022/11/15 01:32:15;;;;;;;10.75;6.10;;;;;;;9.17;95.20;100400.09;5007074;28;20650;-73
2022/11/15 01:35:00;;;;;;;14.45;5.45;;;;;;;8.92;96.02;100399.56;5011315;28;20068;-74
2022/11/15 01:37:43;;;;;;;11.82;5.75;;;;;;;9.03;96.11;100404.06;5001834;28;20099;-73
2022/11/15 01:40:27;;;;;;;10.95;6.22;;;;;;;9.08;94.99;100398.41;5005383;28;20088;-73
2022/11/15 01:43:24;;;;;;;17.85;6.50;;;;;;;9.13;95.11;100394.66;5007752;28;20679;-73
2022/11/15 01:46:29;;;;;;;12.70;5.72;;;;;;;9.09;95.23;100397.28;5008154;28;20100;-73
2022/11/15 01:49:17;;;;;;;15.15;5.80;;;;;;;8.91;95.79;100393.41;5004414;28;20045;-73
2022/11/15 01:52:04;;;;;;;12.98;5.22;;;;;;;9.01;95.39;100398.25;5010996;28;20555;-73
2022/11/15 01:54:54;;;;;;;12.30;6.70;;;;;;;8.93;95.38;100396.53;5007716;28;20586;-73
2022/11/15 01:57:41;;;;;;;14.32;6.32;;;;;;;8.88;95.77;100387.97;5008811;28;20096;-73
2022/11/15 02:00:25;;;;;;;13.18;5.65;;;;;;;8.87;95.90;100387.19;5008405;28;20048;-73
2022/11/15 02:03:09;;;;;;;10.38;5.53;;;;;;;8.89;96.21;100373.41;5006817;28;20092;-73
2022/11/15 02:05:53;;;;;;;11.55;5.75;;;;;;;8.87;95.57;100363.00;5008306;28;20706;-73
2022/11/15 02:08:37;;;;;;;11.32;5.30;;;;;;;8.83;95.07;100380.94;5005815;28;20157;-73
2022/11/15 02:11:21;;;;;;;10.90;6.13;;;;;;;8.89;95.49;100374.19;5015436;22;20100;-66
2022/11/15 02:14:06;;;;;;;12.80;6.35;;;;;;;8.96;94.88;100362.84;5008380;28;20076;-66
2022/11/15 02:17:26;;;;;;;16.20;7.45;;;;;;;8.83;96.08;100358.69;5012487;28;20049;-66
2022/11/15 02:20:53;;;;;;;13.65;5.68;;;;;;;8.58;96.86;100368.88;5007082;28;20076;-66
2022/11/15 02:23:51;;;;;;;12.45;5.70;;;;;;;8.70;97.20;100374.13;4988100;28;20112;-66
2022/11/15 02:26:54;;;;;;;10.75;5.03;;;;;;;8.80;97.08;100365.56;4997067;28;20069;-67
2022/11/15 02:29:54;;;;;;;10.73;4.72;;;;;;;8.80;96.17;100362.09;4979587;28;20377;-66
2022/11/15 02:32:48;;;;;;;9.82;4.95;;;;;;;8.75;96.89;100375.78;5009999;28;20088;-65
2022/11/15 02:35:42;;;;;;;10.70;4.70;;;;;;;8.88;96.51;100361.13;4998185;28;20176;-66
2022/11/15 02:39:00;;;;;;;10.30;5.57;;;;;;;8.91;96.09;100357.72;4991050;28;20458;-66
2022/11/15 02:41:49;;;;;;;14.80;5.10;;;;;;;8.88;96.39;100351.13;4990419;28;20092;-66
2022/11/15 02:44:39;;;;;;;11.60;5.30;;;;;;;8.90;96.34;100348.13;4994254;28;20076;-66
2022/11/15 02:47:26;;;;;;;8.63;4.90;;;;;;;8.95;95.97;100337.88;4995217;28;20049;-66
2022/11/15 02:50:13;;;;;;;11.35;4.97;;;;;;;9.01;96.09;100355.28;4990781;28;20049;-66
2022/11/15 02:52:57;;;;;;;10.40;5.40;;;;;;;9.06;95.77;100341.56;4987655;28;20128;-66
2022/11/15 02:55:45;;;;;;;13.57;5.30;;;;;;;9.08;95.61;100355.41;4991120;28;20077;-66
2022/11/15 02:58:42;;;;;;;13.13;5.22;;;;;;;9.02;95.23;100364.09;4986939;28;20466;-66
2022/11/15 03:01:41;;;;;;;9.05;4.70;;;;;;;8.98;95.08;100365.94;4983591;28;20050;-66
2022/11/15 03:04:37;;;;;;;11.65;4.75;;;;;;;8.91;94.83;100361.19;4994195;28;20053;-66
2022/11/15 03:08:00;;;;;;;8.45;4.40;;;;;;;8.81;95.55;100360.94;4987505;28;20053;-66
2022/11/15 03:10:56;;;;;;;13.25;4.53;;;;;;;8.78;96.04;100345.53;5001845;28;20061;-66
2022/11/15 03:13:55;;;;;;;10.23;4.53;;;;;;;8.81;95.48;100356.34;4993919;28;20502;-66
2022/11/15 03:17:06;;;;;;;9.30;4.55;;;;;;;8.84;95.55;100339.56;4993444;28;20096;-66
2022/11/15 03:19:53;;;;;;;8.55;4.47;;;;;;;8.82;95.42;100347.19;4985537;28;20053;-66
2022/11/15 03:22:42;;;;;;;7.90;3.97;;;;;;;8.77;95.44;100349.34;4991996;28;20053;-66
2022/11/15 03:25:29;;;;;;;9.57;4.35;;;;;;;8.73;95.85;100346.59;4987822;28;20112;-66
2022/11/15 03:28:19;;;;;;;11.10;4.72;;;;;;;8.69;95.48;100351.09;4990213;28;20096;-66
2022/11/15 03:31:46;;;;;;;7.53;4.05;;;;;;;8.64;96.16;100355.94;4997381;28;20413;-66
2022/11/15 03:34:16;;;;;;;9.10;4.80;;;;;;;8.66;96.20;100346.44;4986248;28;20049;-66
2022/11/15 03:36:59;;;;;;;7.72;4.47;;;;;;;8.52;96.77;100348.00;4996182;28;20114;-66
2022/11/15 03:39:44;;;;;;;7.63;4.93;;;;;;;8.51;97.54;100341.09;4990697;28;20169;-66
2022/11/15 03:42:33;;;;;;;6.85;4.15;;;;;;;8.64;97.48;100350.59;4993578;28;20555;-65
2022/11/15 03:45:32;;;;;;;8.63;4.97;;;;;;;8.76;97.10;100342.44;4995796;28;20061;-65
2022/11/15 03:48:24;;;;;;;11.95;3.80;;;;;;;8.88;96.62;100326.97;4987181;28;20570;-66
2022/11/15 03:51:09;;;;;;;9.00;4.10;;;;;;;8.79;96.81;100336.34;4980994;28;20096;-66
2022/11/15 03:53:53;;;;;;;10.15;4.93;;;;;;;8.85;96.51;100340.31;4987999;28;20080;-66
2022/11/15 03:56:37;;;;;;;10.32;4.13;;;;;;;9.01;96.11;100341.06;4988607;28;20088;-66
2022/11/15 03:59:21;;;;;;;9.60;4.72;;;;;;;8.96;96.06;100330.59;4985376;28;20045;-66
2022/11/15 04:02:05;;;;;;;8.38;4.18;;;;;;;8.95;96.21;100329.81;5001317;28;20469;-66
2022/11/15 04:04:48;;;;;;;10.90;4.82;;;;;;;8.97;96.31;100326.78;4989437;28;20061;-66
2022/11/15 04:07:32;;;;;;;8.13;3.92;;;;;;;8.99;96.14;100328.00;4992886;28;20513;-66
2022/11/15 04:10:16;;;;;;;9.35;4.50;;;;;;;9.03;95.88;100323.47;4991378;28;20053;-66
2022/11/15 04:13:02;;;;;;;8.95;5.20;;;;;;;8.98;96.06;100328.34;4989761;28;20533;-66
2022/11/15 04:15:45;;;;;;;7.82;4.32;;;;;;;8.96;96.58;100326.00;4994875;28;20081;-66
2022/11/15 04:18:30;;;;;;;7.95;3.58;;;;;;;9.00;96.39;100326.84;4992618;28;20076;-66
2022/11/15 04:24:16;;;;;;;11.75;4.50;;;;;;;8.92;96.59;100337.81;4997442;28;20044;-66
2022/11/15 04:27:01;;;;;;;7.78;3.80;;;;;;;8.93;96.53;100328.59;4986760;28;20101;-66
2022/11/15 04:29:45;;;;;;;7.93;4.25;;;;;;;8.91;96.33;100333.56;4989825;28;20053;-66
2022/11/15 04:32:29;;;;;;;10.65;4.28;;;;;;;8.85;96.51;100329.59;4988418;28;20053;-66
2022/11/15 04:35:13;;;;;;;10.18;4.05;;;;;;;8.80;96.34;100329.88;4994407;28;20064;-66
2022/11/15 04:37:57;;;;;;;9.07;4.82;;;;;;;8.76;96.19;100337.84;5003606;28;20371;-66
2022/11/15 04:40:44;;;;;;;6.78;4.00;;;;;;;8.78;96.49;100338.28;4992932;28;20120;-66
2022/11/15 04:43:29;;;;;;;11.23;4.60;;;;;;;8.68;96.93;100349.56;4981855;28;20044;-65
2022/11/15 04:46:13;;;;;;;7.43;3.97;;;;;;;8.73;97.38;100335.84;4987403;28;20582;-66
2022/11/15 04:48:57;;;;;;;5.85;3.83;;;;;;;8.83;97.23;100338.00;4999771;28;20109;-66
2022/11/15 04:51:40;;;;;;;7.97;4.78;;;;;;;8.83;96.98;100342.56;4992551;28;20144;-66
2022/11/15 04:54:24;;;;;;;11.95;4.70;;;;;;;8.92;97.14;100341.25;4987955;28;20057;-66
2022/11/15 04:57:08;;;;;;;10.38;5.07;;;;;;;8.90;97.21;100337.38;4996521;28;20042;-66
2022/11/15 04:59:52;;;;;;;8.88;4.03;;;;;;;8.90;97.69;100348.13;4992420;28;20196;-66
2022/11/15 05:05:39;;;;;;;8.23;3.65;;;;;;;8.96;97.84;100338.66;4990564;28;20045;-66
2022/11/15 05:08:23;;;;;;;8.88;5.32;;;;;;;9.05;97.72;100334.66;4992303;28;20057;-66
2022/11/15 05:11:07;;;;;;;8.32;4.18;;;;;;;9.12;96.92;100335.94;4999862;28;20505;-66
2022/11/15 05:13:52;;;;;;;7.40;4.75;;;;;;;9.15;96.98;100333.31;4994533;28;20391;-66
2022/11/15 05:16:36;;;;;;;11.48;5.07;;;;;;;9.12;96.67;100339.38;4991456;28;20049;-66
2022/11/15 05:19:21;;;;;;;8.52;4.60;;;;;;;9.04;96.97;100326.91;4994571;28;20112;-66
2022/11/15 05:22:05;;;;;;;12.38;4.88;;;;;;;9.14;96.36;100330.97;4992154;28;20057;-66
2022/11/15 05:24:49;;;;;;;11.40;5.03;;;;;;;9.05;96.32;100333.88;4989633;28;20080;-66
2022/11/15 05:27:34;;;;;;;10.75;5.15;;;;;;;9.05;96.64;100329.28;4991694;28;20085;-66
2022/11/15 05:30:17;;;;;;;12.90;5.78;;;;;;;9.03;96.55;100326.16;4984198;28;20119;-66
2022/11/15 05:33:01;;;;;;;14.13;4.70;;;;;;;9.01;96.69;100323.06;4990580;28;20057;-66
2022/11/15 05:35:56;;;;;;;9.10;5.45;;;;;;;8.99;96.42;100338.75;4989664;28;20480;-66
2022/11/15 05:38:41;;;;;;;9.57;4.90;;;;;;;9.03;96.38;100323.47;4984535;28;20096;-66
2022/11/15 05:41:37;;;;;;;9.80;4.82;;;;;;;9.11;96.09;100319.03;5002094;28;20091;-66
2022/11/15 05:44:25;;;;;;;14.02;4.97;;;;;;;9.13;95.54;100324.03;4981730;28;20510;-66
2022/11/15 05:47:14;;;;;;;12.63;6.25;;;;;;;9.12;95.09;100317.13;4988427;28;20037;-66
2022/11/15 05:49:57;;;;;;;13.07;4.90;;;;;;;9.18;94.92;100321.06;4986767;28;20076;-67
2022/11/15 05:52:43;;;;;;;9.60;4.82;;;;;;;9.18;94.80;100321.84;4991222;28;20045;-66
2022/11/15 05:55:27;;;;;;;11.57;5.60;;;;;;;9.13;94.98;100324.03;4989684;28;20101;-66
2022/11/15 05:58:11;;;;;;;11.23;5.47;;;;;;;9.12;94.84;100325.19;4983243;28;20072;-66
2022/11/15 06:00:55;;;;;;;11.20;5.07;;;;;;;9.13;94.75;100326.72;4985969;28;20050;-66
2022/11/15 06:03:38;;;;;;;9.68;5.10;;;;;;;9.08;94.84;100336.63;4989986;28;20049;-66
2022/11/15 06:06:22;;;;;;;8.32;4.65;;;;;;;8.96;94.94;100334.06;4990844;28;20049;-66
2022/11/15 06:09:06;;;;;;;9.35;4.70;;;;;;;8.92;94.64;100335.88;4985598;28;20068;-66
2022/11/15 06:11:50;;;;;;;12.13;5.63;;;;;;;8.92;95.07;100332.44;4983627;28;20487;-66
2022/11/15 06:14:35;;;;;;;11.70;5.43;;;;;;;8.89;94.97;100347.34;4983991;28;20137;-66
2022/11/15 06:17:18;;;;;;;12.85;5.00;;;;;;;8.86;95.36;100347.25;4989200;28;20414;-66
2022/11/15 06:20:03;;;;;;;11.25;5.32;;;;;;;8.85;95.34;100353.75;4990729;28;20049;-66
2022/11/15 06:22:47;;;;;;;12.05;6.43;;;;;;;8.85;95.72;100341.09;4985968;28;20109;-66
2022/11/15 06:25:31;;;;;;;14.23;6.05;;;;;;;8.86;96.10;100353.41;4985894;28;20143;-66
2022/11/15 06:28:16;;;;;;;11.50;6.28;;;;;;;8.80;96.09;100352.13;4987418;28;20536;-66
2022/11/15 06:31:11;;;;;;;12.10;5.15;;;;;;;8.86;96.17;100350.72;4979538;28;20152;-66
2022/11/15 06:33:54;;;;;;;10.13;4.82;;;;;;;8.96;96.33;100360.91;4986023;28;20046;-66
2022/11/15 06:36:38;;;;;;;13.68;5.68;;;;;;;8.88;96.22;100355.75;4983136;28;20045;-66
2022/11/15 06:39:22;;;;;;;9.95;5.15;;;;;;;9.02;96.04;100364.88;4972642;28;20058;-66
2022/11/15 06:42:28;;;;;;;15.85;6.05;;;;;;;9.03;95.83;100369.13;4981535;28;20627;-66
2022/11/15 06:45:12;;;;;;;10.63;5.20;;;;;;;8.99;96.12;100360.22;4913534;29;20197;-66
2022/11/15 06:47:56;;;;;;;13.93;5.65;;;;;;;9.00;96.19;100369.81;4906173;29;20667;-66
2022/11/15 06:50:41;;;;;;;10.77;5.15;;;;;;;9.05;96.09;100368.78;4908527;29;20047;-66
2022/11/15 06:53:26;;;;;;;9.25;4.72;;;;;;;9.08;95.94;100365.38;4914615;29;20042;-66
2022/11/15 06:56:10;;;;;;;9.40;4.82;;;;;;;9.13;95.92;100361.66;4906155;29;20043;-66
2022/11/15 06:58:55;;;;;;;10.52;5.15;;;;;;;9.20;96.12;100357.19;4909685;29;20547;-66
2022/11/15 07:01:39;;;;;;;14.50;6.63;;;;;;;9.26;94.96;100368.44;4906087;29;20091;-66
2022/11/15 07:04:23;;;;;;;12.98;5.45;;;;;;;9.23;96.03;100371.84;4906412;29;20111;-66
2022/11/15 07:07:07;;;;;;;12.50;5.40;;;;;;;9.22;95.78;100364.91;4905899;29;20527;-66
2022/11/15 07:09:52;;;;;;;17.05;6.57;;;;;;;9.23;95.76;100372.63;4893642;29;20043;-66
2022/11/15 07:12:35;;;;;;;13.43;5.70;;;;;;;9.32;95.61;100369.72;4906380;29;20074;-67
2022/11/15 07:15:25;;;;;;;13.98;6.32;;;;;;;9.45;95.10;100368.44;4907506;29;20082;-66
2022/11/15 07:18:09;;;;;;;14.80;5.82;;;;;;;9.46;95.01;100375.38;4911048;29;20122;-66
2022/11/15 07:20:53;;;;;;;13.15;5.50;;;;;;;9.37;94.97;100378.28;4915210;28;20087;-66
2022/11/15 07:23:38;;;;;;;14.50;6.13;;;;;;;9.37;95.13;100377.53;4994272;28;20061;-66
2022/11/15 07:26:22;;;;;;;12.90;5.70;;;;;;;9.44;95.13;100377.66;4992079;28;20435;-66
2022/11/15 07:29:06;;;;;;;12.02;6.05;;;;;;;9.45;95.49;100382.66;4986202;28;20174;-66
2022/11/15 07:31:50;;;;;;;10.85;5.18;;;;;;;9.52;95.35;100390.09;4989143;28;20096;-68
2022/11/15 07:34:34;;;;;;;11.35;5.85;;;;;;;9.52;95.44;100385.50;4991177;28;20057;-67
2022/11/15 07:37:18;;;;;;;13.80;5.95;;;;;;;9.57;94.91;100385.22;4992778;28;20049;-66
2022/11/15 07:40:03;;;;;;;13.05;5.80;;;;;;;9.48;95.21;100400.78;4995204;28;20072;-66
2022/11/15 07:42:53;;;;;;;10.50;5.60;;;;;;;9.50;95.24;100382.41;4994073;28;20116;-66
2022/11/15 07:45:43;;;;;;;15.68;6.05;;;;;;;9.59;95.77;100387.53;4980788;28;20113;-66
2022/11/15 07:48:27;;;;;;;13.48;6.38;;;;;;;9.66;95.05;100385.78;4990597;28;20073;-66
2022/11/15 07:51:14;;;;;;;9.82;4.43;;;;;;;9.72;94.62;100389.72;4990869;28;20482;-66
2022/11/15 07:53:57;;;;;;;9.82;5.35;;;;;;;9.71;94.63;100393.56;4991005;28;20406;-66
2022/11/15 07:56:41;;;;;;;8.98;4.22;;;;;;;9.76;94.86;100390.59;4991731;28;20101;-66
2022/11/15 07:59:25;;;;;;;14.93;5.53;;;;;;;9.68;95.14;100388.09;4996572;28;20048;-66
2022/11/15 08:02:09;;;;;;;8.48;4.80;;;;;;;9.72;94.93;100394.31;4992905;28;20088;-66
2022/11/15 08:04:53;;;;;;;10.55;5.18;;;;;;;9.73;94.46;100390.53;4992096;28;20089;-66
2022/11/15 08:07:38;;;;;;;11.77;5.28;;;;;;;9.67;95.03;100392.72;4995060;28;20057;-66
2022/11/15 08:10:22;;;;;;;19.00;6.05;;;;;;;9.72;95.24;100391.63;4994796;22;20072;-71
2022/11/15 08:13:09;;;;;;;10.60;5.18;;;;;;;9.66;95.17;100382.31;4991369;28;20139;-72
2022/11/15 08:16:01;;;;;;;10.70;5.97;;;;;;;9.79;95.03;100378.34;4990539;28;20716;-71
2022/11/15 08:18:45;;;;;;;;;;;;;;;9.77;94.63;100380.63;4984589;28;20081;-70
2022/11/15 08:21:29;;;;;;;7.15;4.38;;;;;;;9.88;94.78;100384.28;4995376;28;20336;-72
2022/11/15 08:24:14;;;;;;;9.80;5.28;;;;;;;9.90;94.73;100388.16;4991365;28;20533;-72
2022/11/15 08:26:58;;;;;;;13.15;5.90;;;;;;;9.90;94.61;100390.06;4992472;28;20133;-71
2022/11/15 08:29:43;;;;;;;8.90;4.95;;;;;;;9.87;94.52;100383.47;4990589;28;20190;-72
2022/11/15 08:32:27;;;;;;;10.02;5.35;;;;;;;9.99;94.27;100383.34;4968319;28;20566;-72
2022/11/15 08:35:11;;;;;;;12.85;5.13;;;;;;;9.95;94.27;100379.00;4984474;28;20037;-72
2022/11/15 08:37:55;;;;;;;15.38;5.75;;;;;;;9.96;94.53;100377.88;4993382;28;20057;-72
2022/11/15 08:40:39;;;;;;;10.90;5.45;;;;;;;9.99;94.03;100374.47;4987313;28;20084;-72
2022/11/15 08:43:23;;;;;;;15.52;5.18;;;;;;;10.06;93.61;100387.28;4993188;28;20979;-72
2022/11/15 08:46:12;;;;;;;11.63;5.35;;;;;;;9.86;94.57;100387.31;4981780;28;20065;-72
2022/11/15 08:48:56;;;;;;;10.32;5.22;;;;;;;10.00;94.72;100387.59;4991267;28;20566;-72
2022/11/15 08:51:40;;;;;;;10.27;4.75;;;;;;;10.02;94.22;100385.31;4987228;28;20100;-72
2022/11/15 08:54:24;;;;;;;14.95;5.70;;;;;;;10.16;93.87;100373.28;4995805;28;20052;-73
2022/11/15 08:57:09;;;;;;;8.52;4.15;;;;;;;10.02;94.58;100363.00;4992642;28;20522;-73
2022/11/15 08:59:53;;;;;;;11.05;5.65;;;;;;;10.13;94.19;100373.97;4982587;28;20447;-71
2022/11/15 09:02:38;;;;;;;11.02;5.00;;;;;;;10.22;94.57;100375.28;4987885;28;20506;-73
2022/11/15 09:05:22;;;;;;;14.60;6.05;;;;;;;10.38;95.00;100373.28;4988332;28;20108;-72
2022/11/15 09:08:07;;;;;;;8.85;4.68;;;;;;;10.64;94.85;100373.31;4992075;28;20048;-72
2022/11/15 09:10:52;;;;;;;11.80;4.70;;;;;;;10.96;94.42;100383.75;4988254;28;20653;-71
2022/11/15 09:13:39;;;;;;;10.77;4.68;;;;;;;11.25;94.75;100377.59;4986302;28;20045;-72
2022/11/15 09:16:26;;;;;;;13.35;6.07;;;;;;;11.40;94.10;100380.13;4985133;28;20045;-72
2022/11/15 09:19:10;;;;;;;11.07;5.85;;;;;;;11.64;94.02;100384.25;4989862;28;20076;-72
2022/11/15 09:21:54;;;;;;;13.00;5.88;;;;;;;11.80;93.63;100382.16;4986572;28;20570;-72
2022/11/15 09:24:38;;;;;;;11.95;5.80;;;;;;;11.99;92.21;100378.50;4989856;28;20065;-71
2022/11/15 09:27:22;;;;;;;16.08;6.25;;;;;;;11.83;92.07;100380.66;4990993;28;20137;-71
2022/11/15 09:30:06;;;;;;;9.15;5.07;;;;;;;12.04;91.89;100388.97;4989916;28;20049;-72
2022/11/15 09:32:50;;;;;;;8.73;5.38;;;;;;;12.17;91.12;100391.03;4992386;28;20092;-72
2022/11/15 09:35:34;;;;;;;9.60;4.88;;;;;;;12.30;90.06;100392.31;4968623;28;20061;-72
2022/11/15 09:38:19;;;;;;;9.52;4.57;;;;;;;12.52;89.43;100394.03;4988866;28;20046;-71
2022/11/15 09:41:12;;;;;;;10.10;5.20;;;;;;;12.54;89.12;100399.06;4969118;28;20092;-71
2022/11/15 09:44:24;;;;;;;15.85;4.95;;;;;;;12.62;88.52;100396.03;4989671;28;20045;-71
2022/11/15 09:47:56;;;;;;;11.98;4.80;;;;;;;12.73;87.59;100398.06;4991215;28;20045;-72
2022/11/15 09:50:50;;;;;;;13.50;4.50;;;;;;;12.72;88.23;100402.66;4954820;28;22067;-72
2022/11/15 09:53:51;;;;;;;13.68;5.20;;;;;;;12.64;87.25;100404.53;4995581;28;20121;-71
2022/11/15 09:56:21;;;;;;;11.05;4.95;;;;;;;12.37;87.38;100400.47;4988239;28;20042;-70
2022/11/15 09:58:55;;;;;;;13.20;4.97;;;;;;;12.39;87.64;100414.38;4989802;28;20030;-71
2022/11/15 10:01:50;;;;;;;10.52;4.55;;;;;;;12.44;87.96;100389.75;4989816;28;20125;-70
2022/11/15 10:04:15;;;;;;;7.82;4.80;;;;;;;12.42;88.06;100394.72;4952534;28;20038;-72
2022/11/15 10:06:49;;;;;;;9.57;4.80;;;;;;;12.43;88.08;100388.16;4973024;28;20034;-70
2022/11/15 10:09:25;;;;;;;8.18;4.53;;;;;;;12.50;87.50;100388.22;4990945;28;20117;-70
2022/11/15 10:11:51;;;;;;;7.50;4.53;;;;;;;12.47;88.13;100394.38;4990227;28;20030;-71
2022/11/15 10:14:22;;;;;;;12.85;5.20;;;;;;;12.48;88.30;100387.84;4990040;28;20514;-71
2022/11/15 10:17:27;;;;;;;7.95;3.92;;;;;;;12.44;88.33;100383.56;4963468;28;20497;-70
2022/11/15 10:19:57;;;;;;;8.82;4.68;;;;;;;12.41;88.23;100378.88;4947317;28;20461;-70
2022/11/15 10:22:29;;;;;;;7.07;4.65;;;;;;;12.51;88.21;100368.19;4990938;28;20038;-71
2022/11/15 10:25:22;;;;;;;13.75;5.05;;;;;;;12.50;88.15;100376.66;4989297;28;20034;-70
2022/11/15 10:27:55;;;;;;;10.75;4.70;;;;;;;12.48;88.83;100376.25;4969873;28;20661;-71
2022/11/15 10:30:22;;;;;;;9.85;4.70;;;;;;;12.45;89.36;100369.66;4987929;28;20116;-72
2022/11/15 10:32:49;;;;;;;7.50;4.32;;;;;;;12.47;89.40;100358.47;4973776;28;20068;-71
2022/11/15 10:35:22;;;;;;;8.48;4.80;;;;;;;12.51;89.86;100367.41;4964347;28;20403;-72
2022/11/15 10:37:48;;;;;;;9.10;4.70;;;;;;;12.52;89.80;100364.31;4986784;28;20509;-71
2022/11/15 10:40:22;;;;;;;9.68;4.57;;;;;;;12.31;90.96;100364.16;4989519;28;20026;-71
2022/11/15 10:43:03;;;;;;;10.85;4.65;;;;;;;12.38;91.03;100366.13;4990192;28;20053;-70
2022/11/15 10:45:31;;;;;;;10.07;4.15;;;;;;;12.50;90.73;100355.81;4985933;28;20034;-70
2022/11/15 10:48:12;;;;;;;10.55;4.57;;;;;;;12.53;90.88;100346.19;4995266;28;20095;-71
2022/11/15 10:50:39;;;;;;;7.30;3.80;;;;;;;12.59;89.70;100347.38;4972502;28;20034;-70
2022/11/15 10:53:19;;;;;;;10.70;4.40;;;;;;;12.59;90.09;100336.59;4993753;28;20472;-71
2022/11/15 10:55:51;;;;;;;10.10;4.45;;;;;;;12.50;90.72;100339.59;4993647;28;20045;-71
2022/11/15 10:58:22;;;;;;;9.30;4.80;;;;;;;12.53;91.50;100343.47;4974169;28;20544;-71
2022/11/15 11:00:48;;;;;;;5.78;3.53;;;;;;;12.60;90.82;100335.44;4993467;28;20495;-71
2022/11/15 11:03:33;;;;;;;8.55;4.70;;;;;;;12.68;90.88;100329.69;4994208;28;20042;-72
2022/11/15 11:06:06;;;;;;;9.82;4.25;;;;;;;12.60;90.88;100327.34;4979384;28;20026;-72
2022/11/15 11:08:32;;;;;;;7.10;3.97;;;;;;;12.66;91.19;100326.59;4994155;28;20129;-71
2022/11/15 11:11:02;;;;;;;7.20;4.15;;;;;;;12.73;91.41;100323.19;4994323;28;20109;-72
2022/11/15 11:13:38;;;;;;;9.30;4.03;;;;;;;12.76;91.56;100329.72;4991994;28;20121;-72
2022/11/15 11:16:13;;;;;;;7.90;4.07;;;;;;;12.84;91.52;100329.41;4962820;28;20041;-71
2022/11/15 11:18:57;;;;;;;8.88;3.80;;;;;;;12.89;91.13;100317.47;4994296;28;20053;-71
2022/11/15 11:22:00;;;;;;;9.20;4.00;;;;;;;12.81;91.58;100324.00;4985991;28;20055;-70
2022/11/15 11:24:34;;;;;;;11.80;4.47;;;;;;;12.86;91.10;100307.41;4985743;28;20030;-71
2022/11/15 11:27:14;;;;;;;7.18;3.78;;;;;;;12.92;91.14;100311.31;4994026;28;20394;-70
2022/11/15 11:30:03;;;;;;;6.25;3.67;;;;;;;12.95;91.02;100300.50;4976322;28;20034;-71
2022/11/15 11:32:48;;;;;;;8.57;3.78;;;;;;;12.98;90.81;100298.97;4977556;28;20113;-71
2022/11/15 11:35:31;;;;;;;12.88;4.57;;;;;;;13.00;90.66;100307.47;4988249;28;20027;-71
2022/11/15 11:38:16;;;;;;;11.23;4.82;;;;;;;13.02;90.47;100318.69;4993098;28;20117;-72
2022/11/15 11:40:54;;;;;;;6.80;3.63;;;;;;;13.02;91.14;100307.88;4992343;28;20034;-71
2022/11/15 11:43:25;;;;;;;7.72;3.85;;;;;;;13.11;90.29;100308.34;4994041;28;20034;-72
2022/11/15 11:46:15;;;;;;;8.90;4.78;;;;;;;12.98;91.16;100298.97;4990564;28;20426;-71
2022/11/15 11:48:48;;;;;;;7.37;4.03;;;;;;;13.04;90.85;100295.56;4992469;28;20031;-71
2022/11/15 11:51:20;;;;;;;7.57;4.07;;;;;;;13.04;90.94;100297.50;4994477;28;20038;-71
2022/11/15 11:53:49;;;;;;;8.30;3.63;;;;;;;13.03;91.05;100285.91;4993643;28;20046;-71
2022/11/15 11:56:36;;;;;;;15.00;3.90;;;;;;;13.05;90.96;100293.63;4992664;28;20115;-71
2022/11/15 11:59:13;;;;;;;7.30;4.13;;;;;;;12.98;91.26;100282.75;4974782;28;20040;-71
2022/11/15 12:01:44;;;;;;;6.35;3.85;;;;;;;13.04;91.64;100283.97;4986996;28;20033;-72
2022/11/15 12:04:20;;;;;;;11.80;4.45;;;;;;;13.04;91.30;100283.97;4992389;28;20161;-71
2022/11/15 12:06:51;;;;;;;6.85;4.03;;;;;;;13.11;90.52;100265.06;4987657;28;20129;-71
2022/11/15 12:09:17;;;;;;;8.30;4.03;;;;;;;13.15;90.49;100272.06;4987429;28;20038;-71
2022/11/15 12:11:58;;;;;;;8.02;3.80;;;;;;;13.20;90.86;100265.50;4993252;28;20072;-70
2022/11/15 12:14:35;;;;;;;6.03;3.65;;;;;;;13.27;90.22;100270.94;4991464;28;20038;-71
2022/11/15 12:17:01;;;;;;;8.07;4.30;;;;;;;13.22;90.59;100276.72;4992527;28;20129;-69
2022/11/15 12:19:29;;;;;;;9.18;4.05;;;;;;;13.22;90.81;100269.34;4987203;28;20073;-72
2022/11/15 12:22:11;;;;;;;10.07;3.47;;;;;;;13.23;90.81;100267.44;4991451;28;20379;-71
2022/11/15 12:24:48;;;;;;;8.93;3.20;;;;;;;13.27;91.11;100266.31;4979743;28;20542;-71
2022/11/15 12:27:19;;;;;;;8.10;3.38;;;;;;;13.32;90.68;100267.84;4992804;28;20037;-72
2022/11/15 12:29:51;;;;;;;;;;;;;;;13.36;91.21;100255.09;4994381;28;20042;-71
2022/11/15 12:32:34;;;;;;;7.93;3.80;;;;;;;13.12;90.67;100253.91;4989506;28;20009;-71
2022/11/15 12:35:02;;;;;;;6.45;3.42;;;;;;;13.22;91.30;100238.88;4986240;28;20039;-71
2022/11/15 12:37:37;;;;;;;6.60;3.85;;;;;;;13.33;91.07;100234.25;4988184;28;20022;-71
2022/11/15 12:40:09;;;;;;;6.65;3.88;;;;;;;13.43;90.83;100239.66;4970297;28;20046;-72
2022/11/15 12:42:41;;;;;;;8.15;4.20;;;;;;;13.46;90.55;100241.63;4985025;28;20218;-71
2022/11/15 12:45:29;;;;;;;9.23;4.63;;;;;;;13.58;90.37;100245.88;4985156;28;20034;-72
2022/11/15 12:48:17;;;;;;;6.70;3.83;;;;;;;13.61;90.23;100245.09;4987239;28;20046;-71
2022/11/15 12:50:53;;;;;;;6.95;3.28;;;;;;;13.67;90.00;100259.81;4983093;28;20038;-71
2022/11/15 12:53:24;;;;;;;8.25;4.13;;;;;;;13.73;89.46;100243.97;4973547;28;20467;-73